sensor_id;sensor_type;location;lat;lon;timestamp;P1;durP1;ratioP1;P2;durP2;ratioP2
34080;SDS011;20358;50.272;19.026;2022-08-21T00:02:46;23.27;;;19.90;;
34080;SDS011;20358;50.272;19.026;2022-08-21T00:05:54;22.47;;;20.07;;
34080;SDS011;20358;50.272;19.026;2022-08-21T00:09:04;22.97;;;19.37;;
34080;SDS011;20358;50.272;19.026;2022-08-21T00:12:14;22.87;;;19.97;;
34080;SDS011;20358;50.272;19.026;2022-08-21T00:15:22;24.93;;;20.30;;
34080;SDS011;20358;50.272;19.026;2022-08-21T00:18:32;22.20;;;19.77;;
34080;SDS011;20358;50.272;19.026;2022-08-21T00:21:38;22.77;;;18.90;;
34080;SDS011;20358;50.272;19.026;2022-08-21T00:24:46;24.00;;;21.03;;
34080;SDS011;20358;50.272;19.026;2022-08-21T00:27:55;24.73;;;20.47;;
34080;SDS011;20358;50.272;19.026;2022-08-21T00:31:04;23.80;;;21.23;;
34080;SDS011;20358;50.272;19.026;2022-08-21T00:34:10;23.77;;;21.17;;
34080;SDS011;20358;50.272;19.026;2022-08-21T00:37:18;22.90;;;20.50;;
34080;SDS011;20358;50.272;19.026;2022-08-21T00:40:26;22.57;;;20.23;;
34080;SDS011;20358;50.272;19.026;2022-08-21T00:43:39;25.43;;;21.97;;
34080;SDS011;20358;50.272;19.026;2022-08-21T00:46:45;25.47;;;22.83;;
34080;SDS011;20358;50.272;19.026;2022-08-21T00:49:52;25.27;;;22.57;;
34080;SDS011;20358;50.272;19.026;2022-08-21T00:52:58;27.37;;;24.60;;
34080;SDS011;20358;50.272;19.026;2022-08-21T00:56:09;28.47;;;24.10;;
34080;SDS011;20358;50.272;19.026;2022-08-21T00:59:20;28.43;;;24.50;;
34080;SDS011;20358;50.272;19.026;2022-08-21T01:02:29;27.93;;;24.93;;
34080;SDS011;20358;50.272;19.026;2022-08-21T01:05:35;26.17;;;23.30;;
34080;SDS011;20358;50.272;19.026;2022-08-21T01:08:43;27.07;;;24.33;;
34080;SDS011;20358;50.272;19.026;2022-08-21T01:11:49;25.97;;;23.23;;
34080;SDS011;20358;50.272;19.026;2022-08-21T01:14:59;24.20;;;21.67;;
34080;SDS011;20358;50.272;19.026;2022-08-21T01:18:09;23.13;;;20.17;;
34080;SDS011;20358;50.272;19.026;2022-08-21T01:21:21;22.83;;;18.80;;
34080;SDS011;20358;50.272;19.026;2022-08-21T01:24:30;22.53;;;19.47;;
34080;SDS011;20358;50.272;19.026;2022-08-21T01:27:37;19.93;;;17.83;;
34080;SDS011;20358;50.272;19.026;2022-08-21T01:30:43;23.67;;;18.43;;
34080;SDS011;20358;50.272;19.026;2022-08-21T01:33:50;21.07;;;18.87;;
34080;SDS011;20358;50.272;19.026;2022-08-21T01:36:59;20.53;;;17.60;;
34080;SDS011;20358;50.272;19.026;2022-08-21T01:40:09;18.53;;;16.53;;
34080;SDS011;20358;50.272;19.026;2022-08-21T01:43:18;19.20;;;16.90;;
34080;SDS011;20358;50.272;19.026;2022-08-21T01:46:35;19.63;;;16.47;;
34080;SDS011;20358;50.272;19.026;2022-08-21T01:49:41;19.90;;;17.77;;
34080;SDS011;20358;50.272;19.026;2022-08-21T01:52:51;18.00;;;16.07;;
34080;SDS011;20358;50.272;19.026;2022-08-21T01:55:58;20.13;;;16.90;;
34080;SDS011;20358;50.272;19.026;2022-08-21T01:59:05;18.23;;;16.33;;
34080;SDS011;20358;50.272;19.026;2022-08-21T02:02:11;19.00;;;16.17;;
34080;SDS011;20358;50.272;19.026;2022-08-21T02:05:19;17.83;;;15.80;;
34080;SDS011;20358;50.272;19.026;2022-08-21T02:08:28;19.47;;;16.27;;
34080;SDS011;20358;50.272;19.026;2022-08-21T02:11:35;20.57;;;15.43;;
34080;SDS011;20358;50.272;19.026;2022-08-21T02:14:43;22.57;;;16.70;;
34080;SDS011;20358;50.272;19.026;2022-08-21T02:17:51;18.40;;;16.50;;
34080;SDS011;20358;50.272;19.026;2022-08-21T02:20:59;18.70;;;16.90;;
34080;SDS011;20358;50.272;19.026;2022-08-21T02:24:08;19.50;;;15.80;;
34080;SDS011;20358;50.272;19.026;2022-08-21T02:27:15;19.10;;;17.00;;
34080;SDS011;20358;50.272;19.026;2022-08-21T02:30:28;22.03;;;17.23;;
34080;SDS011;20358;50.272;19.026;2022-08-21T02:33:40;18.07;;;16.17;;
34080;SDS011;20358;50.272;19.026;2022-08-21T02:36:47;17.97;;;16.10;;
34080;SDS011;20358;50.272;19.026;2022-08-21T02:40:07;20.43;;;15.87;;
34080;SDS011;20358;50.272;19.026;2022-08-21T02:43:15;16.77;;;14.67;;
34080;SDS011;20358;50.272;19.026;2022-08-21T02:46:22;17.40;;;14.53;;
34080;SDS011;20358;50.272;19.026;2022-08-21T02:49:29;18.50;;;15.43;;
34080;SDS011;20358;50.272;19.026;2022-08-21T02:52:34;17.43;;;15.60;;
34080;SDS011;20358;50.272;19.026;2022-08-21T02:55:45;17.77;;;15.60;;
34080;SDS011;20358;50.272;19.026;2022-08-21T02:58:53;18.63;;;16.30;;
34080;SDS011;20358;50.272;19.026;2022-08-21T03:02:02;19.87;;;16.50;;
34080;SDS011;20358;50.272;19.026;2022-08-21T03:05:09;20.40;;;15.83;;
34080;SDS011;20358;50.272;19.026;2022-08-21T03:08:16;18.67;;;16.67;;
34080;SDS011;20358;50.272;19.026;2022-08-21T03:11:28;22.87;;;17.13;;
34080;SDS011;20358;50.272;19.026;2022-08-21T03:14:34;21.20;;;18.00;;
34080;SDS011;20358;50.272;19.026;2022-08-21T03:17:40;19.97;;;17.90;;
34080;SDS011;20358;50.272;19.026;2022-08-21T03:20:48;21.13;;;17.70;;
34080;SDS011;20358;50.272;19.026;2022-08-21T03:23:55;22.53;;;16.90;;
34080;SDS011;20358;50.272;19.026;2022-08-21T03:27:09;24.80;;;19.13;;
34080;SDS011;20358;50.272;19.026;2022-08-21T03:30:15;21.40;;;18.27;;
34080;SDS011;20358;50.272;19.026;2022-08-21T03:33:24;22.37;;;18.03;;
34080;SDS011;20358;50.272;19.026;2022-08-21T03:36:31;23.57;;;18.00;;
34080;SDS011;20358;50.272;19.026;2022-08-21T03:39:37;18.60;;;16.60;;
34080;SDS011;20358;50.272;19.026;2022-08-21T03:42:47;17.77;;;15.83;;
34080;SDS011;20358;50.272;19.026;2022-08-21T03:45:54;22.47;;;17.57;;
34080;SDS011;20358;50.272;19.026;2022-08-21T03:49:02;21.93;;;18.60;;
34080;SDS011;20358;50.272;19.026;2022-08-21T03:52:09;20.73;;;18.07;;
34080;SDS011;20358;50.272;19.026;2022-08-21T03:55:15;21.77;;;17.47;;
34080;SDS011;20358;50.272;19.026;2022-08-21T03:58:26;20.50;;;18.30;;
34080;SDS011;20358;50.272;19.026;2022-08-21T04:01:33;20.60;;;18.37;;
34080;SDS011;20358;50.272;19.026;2022-08-21T04:04:40;22.70;;;17.97;;
34080;SDS011;20358;50.272;19.026;2022-08-21T04:07:46;25.93;;;18.60;;
34080;SDS011;20358;50.272;19.026;2022-08-21T04:10:54;22.27;;;19.20;;
34080;SDS011;20358;50.272;19.026;2022-08-21T04:14:06;24.83;;;18.50;;
34080;SDS011;20358;50.272;19.026;2022-08-21T04:17:13;23.97;;;19.27;;
34080;SDS011;20358;50.272;19.026;2022-08-21T04:20:19;25.53;;;19.57;;
34080;SDS011;20358;50.272;19.026;2022-08-21T04:23:28;23.03;;;18.87;;
34080;SDS011;20358;50.272;19.026;2022-08-21T04:26:35;24.03;;;20.77;;
34080;SDS011;20358;50.272;19.026;2022-08-21T04:29:45;27.33;;;21.63;;
34080;SDS011;20358;50.272;19.026;2022-08-21T04:32:51;23.13;;;19.37;;
34080;SDS011;20358;50.272;19.026;2022-08-21T04:35:58;23.50;;;20.03;;
34080;SDS011;20358;50.272;19.026;2022-08-21T04:39:05;22.60;;;20.07;;
34080;SDS011;20358;50.272;19.026;2022-08-21T04:42:12;25.30;;;19.97;;
34080;SDS011;20358;50.272;19.026;2022-08-21T04:45:22;24.20;;;19.70;;
34080;SDS011;20358;50.272;19.026;2022-08-21T04:48:31;22.87;;;20.43;;
34080;SDS011;20358;50.272;19.026;2022-08-21T04:51:38;27.00;;;19.83;;
34080;SDS011;20358;50.272;19.026;2022-08-21T04:54:45;24.33;;;20.37;;
34080;SDS011;20358;50.272;19.026;2022-08-21T04:57:56;25.13;;;21.13;;
34080;SDS011;20358;50.272;19.026;2022-08-21T05:01:12;27.30;;;20.03;;
34080;SDS011;20358;50.272;19.026;2022-08-21T05:04:22;23.17;;;19.50;;
34080;SDS011;20358;50.272;19.026;2022-08-21T05:07:31;25.75;;;21.15;;
34080;SDS011;20358;50.272;19.026;2022-08-21T05:10:44;25.65;;;20.42;;
34080;SDS011;20358;50.272;19.026;2022-08-21T05:13:51;27.17;;;21.20;;
34080;SDS011;20358;50.272;19.026;2022-08-21T05:17:01;25.42;;;22.15;;
34080;SDS011;20358;50.272;19.026;2022-08-21T05:20:09;28.50;;;21.30;;
34080;SDS011;20358;50.272;19.026;2022-08-21T05:23:16;26.53;;;21.60;;
34080;SDS011;20358;50.272;19.026;2022-08-21T05:26:23;24.63;;;20.90;;
34080;SDS011;20358;50.272;19.026;2022-08-21T05:29:29;26.52;;;22.00;;
34080;SDS011;20358;50.272;19.026;2022-08-21T05:32:40;24.00;;;21.40;;
34080;SDS011;20358;50.272;19.026;2022-08-21T05:35:48;24.43;;;21.87;;
34080;SDS011;20358;50.272;19.026;2022-08-21T05:38:57;25.38;;;21.95;;
34080;SDS011;20358;50.272;19.026;2022-08-21T05:42:04;24.17;;;21.60;;
34080;SDS011;20358;50.272;19.026;2022-08-21T05:45:12;28.95;;;22.70;;
34080;SDS011;20358;50.272;19.026;2022-08-21T05:48:40;27.77;;;21.60;;
34080;SDS011;20358;50.272;19.026;2022-08-21T05:51:47;25.43;;;22.73;;
34080;SDS011;20358;50.272;19.026;2022-08-21T05:54:53;27.58;;;22.10;;
34080;SDS011;20358;50.272;19.026;2022-08-21T05:58:02;30.87;;;24.57;;
34080;SDS011;20358;50.272;19.026;2022-08-21T06:01:08;29.50;;;25.48;;
34080;SDS011;20358;50.272;19.026;2022-08-21T06:04:18;30.97;;;27.60;;
34080;SDS011;20358;50.272;19.026;2022-08-21T06:07:24;29.57;;;24.87;;
34080;SDS011;20358;50.272;19.026;2022-08-21T06:10:31;27.67;;;21.67;;
34080;SDS011;20358;50.272;19.026;2022-08-21T06:13:38;28.73;;;22.77;;
34080;SDS011;20358;50.272;19.026;2022-08-21T06:16:45;27.77;;;21.53;;
34080;SDS011;20358;50.272;19.026;2022-08-21T06:19:54;25.30;;;22.37;;
34080;SDS011;20358;50.272;19.026;2022-08-21T06:23:04;30.55;;;25.17;;
34080;SDS011;20358;50.272;19.026;2022-08-21T06:26:13;28.17;;;24.83;;
34080;SDS011;20358;50.272;19.026;2022-08-21T06:29:20;27.20;;;23.80;;
34080;SDS011;20358;50.272;19.026;2022-08-21T06:32:26;27.95;;;23.05;;
34080;SDS011;20358;50.272;19.026;2022-08-21T06:35:40;28.23;;;24.67;;
34080;SDS011;20358;50.272;19.026;2022-08-21T06:38:46;27.58;;;24.30;;
34080;SDS011;20358;50.272;19.026;2022-08-21T06:41:54;27.97;;;23.17;;
34080;SDS011;20358;50.272;19.026;2022-08-21T06:45:03;22.65;;;17.80;;
34080;SDS011;20358;50.272;19.026;2022-08-21T06:48:11;12.73;;;11.43;;
34080;SDS011;20358;50.272;19.026;2022-08-21T06:51:24;11.40;;;8.80;;
34080;SDS011;20358;50.272;19.026;2022-08-21T06:54:32;6.93;;;6.30;;
34080;SDS011;20358;50.272;19.026;2022-08-21T06:57:37;10.97;;;9.97;;
34080;SDS011;20358;50.272;19.026;2022-08-21T07:00:54;9.00;;;7.40;;
34080;SDS011;20358;50.272;19.026;2022-08-21T07:04:03;7.80;;;6.70;;
34080;SDS011;20358;50.272;19.026;2022-08-21T07:07:13;6.93;;;5.90;;
34080;SDS011;20358;50.272;19.026;2022-08-21T07:10:19;4.63;;;4.10;;
34080;SDS011;20358;50.272;19.026;2022-08-21T07:13:26;4.67;;;4.20;;
34080;SDS011;20358;50.272;19.026;2022-08-21T07:16:32;3.73;;;2.87;;
34080;SDS011;20358;50.272;19.026;2022-08-21T07:19:39;4.87;;;3.47;;
34080;SDS011;20358;50.272;19.026;2022-08-21T07:22:48;4.47;;;4.03;;
34080;SDS011;20358;50.272;19.026;2022-08-21T07:25:55;4.33;;;2.97;;
34080;SDS011;20358;50.272;19.026;2022-08-21T07:29:03;4.23;;;2.70;;
34080;SDS011;20358;50.272;19.026;2022-08-21T07:32:10;4.00;;;3.10;;
34080;SDS011;20358;50.272;19.026;2022-08-21T07:35:22;3.90;;;3.50;;
34080;SDS011;20358;50.272;19.026;2022-08-21T07:38:34;2.53;;;2.27;;
34080;SDS011;20358;50.272;19.026;2022-08-21T07:41:40;2.27;;;1.60;;
34080;SDS011;20358;50.272;19.026;2022-08-21T07:44:47;1.97;;;1.40;;
34080;SDS011;20358;50.272;19.026;2022-08-21T07:47:57;1.00;;;0.90;;
34080;SDS011;20358;50.272;19.026;2022-08-21T07:51:06;1.67;;;1.33;;
34080;SDS011;20358;50.272;19.026;2022-08-21T07:54:16;2.63;;;1.20;;
34080;SDS011;20358;50.272;19.026;2022-08-21T07:57:36;1.03;;;0.93;;
34080;SDS011;20358;50.272;19.026;2022-08-21T08:00:42;0.98;;;0.98;;
34080;SDS011;20358;50.272;19.026;2022-08-21T08:03:49;4.53;;;1.10;;
34080;SDS011;20358;50.272;19.026;2022-08-21T08:06:56;1.20;;;1.00;;
34080;SDS011;20358;50.272;19.026;2022-08-21T08:10:07;1.17;;;0.80;;
34080;SDS011;20358;50.272;19.026;2022-08-21T08:13:14;0.80;;;0.80;;
34080;SDS011;20358;50.272;19.026;2022-08-21T08:16:21;2.53;;;1.02;;
34080;SDS011;20358;50.272;19.026;2022-08-21T08:19:27;1.50;;;1.10;;
34080;SDS011;20358;50.272;19.026;2022-08-21T08:22:35;1.25;;;1.15;;
34080;SDS011;20358;50.272;19.026;2022-08-21T08:25:46;1.25;;;1.15;;
34080;SDS011;20358;50.272;19.026;2022-08-21T08:28:53;1.13;;;1.02;;
34080;SDS011;20358;50.272;19.026;2022-08-21T08:31:59;1.80;;;1.10;;
34080;SDS011;20358;50.272;19.026;2022-08-21T08:35:08;1.25;;;1.02;;
34080;SDS011;20358;50.272;19.026;2022-08-21T08:38:15;1.20;;;1.10;;
34080;SDS011;20358;50.272;19.026;2022-08-21T08:41:29;2.35;;;0.88;;
34080;SDS011;20358;50.272;19.026;2022-08-21T08:44:36;1.75;;;0.98;;
34080;SDS011;20358;50.272;19.026;2022-08-21T08:47:45;2.28;;;0.98;;
34080;SDS011;20358;50.272;19.026;2022-08-21T08:50:54;1.10;;;0.90;;
34080;SDS011;20358;50.272;19.026;2022-08-21T08:54:04;0.93;;;0.90;;
34080;SDS011;20358;50.272;19.026;2022-08-21T08:57:17;2.33;;;1.20;;
34080;SDS011;20358;50.272;19.026;2022-08-21T09:00:27;1.55;;;1.27;;
34080;SDS011;20358;50.272;19.026;2022-08-21T09:03:38;2.38;;;1.70;;
34080;SDS011;20358;50.272;19.026;2022-08-21T09:06:50;2.90;;;1.60;;
34080;SDS011;20358;50.272;19.026;2022-08-21T09:10:09;2.10;;;1.48;;
34080;SDS011;20358;50.272;19.026;2022-08-21T09:13:24;3.70;;;1.90;;
34080;SDS011;20358;50.272;19.026;2022-08-21T09:16:46;1.80;;;1.23;;
34080;SDS011;20358;50.272;19.026;2022-08-21T09:20:05;3.58;;;1.65;;
34080;SDS011;20358;50.272;19.026;2022-08-21T09:23:24;2.38;;;1.58;;
34080;SDS011;20358;50.272;19.026;2022-08-21T09:26:44;3.83;;;1.55;;
34080;SDS011;20358;50.272;19.026;2022-08-21T09:29:59;3.22;;;1.40;;
34080;SDS011;20358;50.272;19.026;2022-08-21T09:33:06;3.25;;;1.83;;
34080;SDS011;20358;50.272;19.026;2022-08-21T09:36:12;2.60;;;1.63;;
34080;SDS011;20358;50.272;19.026;2022-08-21T09:39:31;3.05;;;1.83;;
34080;SDS011;20358;50.272;19.026;2022-08-21T09:42:53;2.28;;;1.67;;
34080;SDS011;20358;50.272;19.026;2022-08-21T09:46:08;1.30;;;1.20;;
34080;SDS011;20358;50.272;19.026;2022-08-21T09:49:25;1.50;;;1.40;;
34080;SDS011;20358;50.272;19.026;2022-08-21T09:52:33;2.88;;;1.48;;
34080;SDS011;20358;50.272;19.026;2022-08-21T09:55:46;2.50;;;1.33;;
34080;SDS011;20358;50.272;19.026;2022-08-21T09:59:17;2.35;;;1.90;;
34080;SDS011;20358;50.272;19.026;2022-08-21T10:02:40;2.10;;;1.90;;
34080;SDS011;20358;50.272;19.026;2022-08-21T10:05:52;2.33;;;1.73;;
34080;SDS011;20358;50.272;19.026;2022-08-21T10:09:03;3.90;;;1.90;;
34080;SDS011;20358;50.272;19.026;2022-08-21T10:12:20;2.17;;;1.52;;
34080;SDS011;20358;50.272;19.026;2022-08-21T10:15:34;3.58;;;1.80;;
34080;SDS011;20358;50.272;19.026;2022-08-21T10:18:59;2.55;;;1.85;;
34080;SDS011;20358;50.272;19.026;2022-08-21T10:22:15;3.28;;;1.42;;
34080;SDS011;20358;50.272;19.026;2022-08-21T10:25:35;1.60;;;1.50;;
34080;SDS011;20358;50.272;19.026;2022-08-21T10:29:15;1.60;;;1.50;;
34080;SDS011;20358;50.272;19.026;2022-08-21T10:32:42;2.08;;;1.55;;
34080;SDS011;20358;50.272;19.026;2022-08-21T10:36:09;1.60;;;1.45;;
34080;SDS011;20358;50.272;19.026;2022-08-21T10:39:21;1.95;;;1.75;;
34080;SDS011;20358;50.272;19.026;2022-08-21T10:42:38;1.50;;;1.40;;
34080;SDS011;20358;50.272;19.026;2022-08-21T10:45:57;1.90;;;1.77;;
34080;SDS011;20358;50.272;19.026;2022-08-21T10:49:14;1.92;;;1.58;;
34080;SDS011;20358;50.272;19.026;2022-08-21T10:52:33;2.28;;;2.03;;
34080;SDS011;20358;50.272;19.026;2022-08-21T10:55:54;3.28;;;2.00;;
34080;SDS011;20358;50.272;19.026;2022-08-21T10:59:07;2.53;;;1.70;;
34080;SDS011;20358;50.272;19.026;2022-08-21T11:02:27;1.70;;;1.60;;
34080;SDS011;20358;50.272;19.026;2022-08-21T11:05:40;1.67;;;1.58;;
34080;SDS011;20358;50.272;19.026;2022-08-21T11:08:55;1.80;;;1.70;;
34080;SDS011;20358;50.272;19.026;2022-08-21T11:12:12;2.28;;;1.70;;
34080;SDS011;20358;50.272;19.026;2022-08-21T11:15:32;2.17;;;1.98;;
34080;SDS011;20358;50.272;19.026;2022-08-21T11:18:45;2.30;;;2.10;;
34080;SDS011;20358;50.272;19.026;2022-08-21T11:21:56;2.38;;;2.17;;
34080;SDS011;20358;50.272;19.026;2022-08-21T11:25:15;2.40;;;2.20;;
34080;SDS011;20358;50.272;19.026;2022-08-21T11:28:38;1.80;;;1.70;;
34080;SDS011;20358;50.272;19.026;2022-08-21T11:35:29;2.45;;;2.03;;
34080;SDS011;20358;50.272;19.026;2022-08-21T11:38:42;1.38;;;1.27;;
34080;SDS011;20358;50.272;19.026;2022-08-21T11:41:57;1.65;;;1.50;;
34080;SDS011;20358;50.272;19.026;2022-08-21T11:45:17;1.50;;;1.40;;
34080;SDS011;20358;50.272;19.026;2022-08-21T11:48:34;1.38;;;1.27;;
34080;SDS011;20358;50.272;19.026;2022-08-21T11:51:51;2.53;;;2.00;;
34080;SDS011;20358;50.272;19.026;2022-08-21T11:55:06;2.38;;;1.55;;
34080;SDS011;20358;50.272;19.026;2022-08-21T11:58:29;3.00;;;1.80;;
34080;SDS011;20358;50.272;19.026;2022-08-21T12:01:39;2.10;;;1.90;;
34080;SDS011;20358;50.272;19.026;2022-08-21T12:04:51;1.65;;;1.55;;
34080;SDS011;20358;50.272;19.026;2022-08-21T12:08:11;1.95;;;1.70;;
34080;SDS011;20358;50.272;19.026;2022-08-21T12:11:22;2.75;;;1.60;;
34080;SDS011;20358;50.272;19.026;2022-08-21T12:14:38;1.98;;;1.38;;
34080;SDS011;20358;50.272;19.026;2022-08-21T12:17:54;1.48;;;1.38;;
34080;SDS011;20358;50.272;19.026;2022-08-21T12:21:17;1.63;;;1.52;;
34080;SDS011;20358;50.272;19.026;2022-08-21T12:24:32;1.60;;;1.50;;
34080;SDS011;20358;50.272;19.026;2022-08-21T12:27:44;1.65;;;1.55;;
34080;SDS011;20358;50.272;19.026;2022-08-21T12:30:55;1.30;;;1.20;;
34080;SDS011;20358;50.272;19.026;2022-08-21T12:34:06;1.40;;;1.30;;
34080;SDS011;20358;50.272;19.026;2022-08-21T12:37:18;1.20;;;1.10;;
34080;SDS011;20358;50.272;19.026;2022-08-21T12:40:29;1.10;;;1.10;;
34080;SDS011;20358;50.272;19.026;2022-08-21T12:43:44;1.00;;;1.00;;
34080;SDS011;20358;50.272;19.026;2022-08-21T12:47:00;1.48;;;1.38;;
34080;SDS011;20358;50.272;19.026;2022-08-21T12:50:11;4.25;;;2.00;;
34080;SDS011;20358;50.272;19.026;2022-08-21T12:53:24;2.13;;;2.00;;
34080;SDS011;20358;50.272;19.026;2022-08-21T12:56:36;2.25;;;2.15;;
34080;SDS011;20358;50.272;19.026;2022-08-21T12:59:42;2.97;;;2.67;;
34080;SDS011;20358;50.272;19.026;2022-08-21T13:02:52;3.83;;;3.53;;
34080;SDS011;20358;50.272;19.026;2022-08-21T13:06:03;3.90;;;3.60;;
34080;SDS011;20358;50.272;19.026;2022-08-21T13:09:12;3.47;;;3.17;;
34080;SDS011;20358;50.272;19.026;2022-08-21T13:12:21;3.43;;;3.13;;
34080;SDS011;20358;50.272;19.026;2022-08-21T13:15:35;6.00;;;5.50;;
34080;SDS011;20358;50.272;19.026;2022-08-21T13:18:56;6.13;;;4.93;;
34080;SDS011;20358;50.272;19.026;2022-08-21T13:22:10;6.30;;;5.20;;
34080;SDS011;20358;50.272;19.026;2022-08-21T13:25:36;6.20;;;5.60;;
34080;SDS011;20358;50.272;19.026;2022-08-21T13:28:44;8.70;;;7.80;;
34080;SDS011;20358;50.272;19.026;2022-08-21T13:31:51;10.43;;;8.50;;
34080;SDS011;20358;50.272;19.026;2022-08-21T13:35:09;8.37;;;7.57;;
34080;SDS011;20358;50.272;19.026;2022-08-21T13:38:18;7.73;;;6.93;;
34080;SDS011;20358;50.272;19.026;2022-08-21T13:41:30;7.77;;;7.07;;
34080;SDS011;20358;50.272;19.026;2022-08-21T13:44:40;8.33;;;7.60;;
34080;SDS011;20358;50.272;19.026;2022-08-21T13:47:48;8.70;;;7.90;;
34080;SDS011;20358;50.272;19.026;2022-08-21T13:50:58;9.70;;;8.83;;
34080;SDS011;20358;50.272;19.026;2022-08-21T13:54:13;9.20;;;8.33;;
34080;SDS011;20358;50.272;19.026;2022-08-21T13:57:24;8.17;;;7.43;;
34080;SDS011;20358;50.272;19.026;2022-08-21T14:00:33;6.53;;;5.93;;
34080;SDS011;20358;50.272;19.026;2022-08-21T14:03:41;6.03;;;5.43;;
34080;SDS011;20358;50.272;19.026;2022-08-21T14:06:54;5.53;;;5.13;;
34080;SDS011;20358;50.272;19.026;2022-08-21T14:10:03;6.73;;;5.47;;
34080;SDS011;20358;50.272;19.026;2022-08-21T14:13:22;6.60;;;6.00;;
34080;SDS011;20358;50.272;19.026;2022-08-21T14:16:42;6.20;;;5.20;;
34080;SDS011;20358;50.272;19.026;2022-08-21T14:19:51;6.57;;;5.93;;
34080;SDS011;20358;50.272;19.026;2022-08-21T14:23:00;8.37;;;7.47;;
34080;SDS011;20358;50.272;19.026;2022-08-21T14:26:08;9.90;;;8.90;;
34080;SDS011;20358;50.272;19.026;2022-08-21T14:29:15;10.93;;;8.27;;
34080;SDS011;20358;50.272;19.026;2022-08-21T14:32:26;8.30;;;7.53;;
34080;SDS011;20358;50.272;19.026;2022-08-21T14:35:34;9.67;;;7.40;;
34080;SDS011;20358;50.272;19.026;2022-08-21T14:38:44;11.00;;;9.73;;
34080;SDS011;20358;50.272;19.026;2022-08-21T14:41:50;14.53;;;12.23;;
34080;SDS011;20358;50.272;19.026;2022-08-21T14:45:00;20.73;;;18.10;;
34080;SDS011;20358;50.272;19.026;2022-08-21T14:48:10;18.17;;;16.23;;
34080;SDS011;20358;50.272;19.026;2022-08-21T14:51:17;18.87;;;16.57;;
34080;SDS011;20358;50.272;19.026;2022-08-21T14:54:26;17.33;;;15.53;;
34080;SDS011;20358;50.272;19.026;2022-08-21T14:57:35;9.53;;;8.47;;
34080;SDS011;20358;50.272;19.026;2022-08-21T15:00:41;12.30;;;11.00;;
34080;SDS011;20358;50.272;19.026;2022-08-21T15:03:47;13.37;;;11.90;;
34080;SDS011;20358;50.272;19.026;2022-08-21T15:06:57;12.40;;;11.10;;
34080;SDS011;20358;50.272;19.026;2022-08-21T15:10:09;15.80;;;12.03;;
34080;SDS011;20358;50.272;19.026;2022-08-21T15:13:15;16.97;;;14.97;;
34080;SDS011;20358;50.272;19.026;2022-08-21T15:16:22;19.43;;;13.37;;
34080;SDS011;20358;50.272;19.026;2022-08-21T15:19:30;19.77;;;17.67;;
34080;SDS011;20358;50.272;19.026;2022-08-21T15:22:37;21.57;;;17.23;;
34080;SDS011;20358;50.272;19.026;2022-08-21T15:25:52;21.37;;;18.83;;
34080;SDS011;20358;50.272;19.026;2022-08-21T15:29:05;20.20;;;18.10;;
34080;SDS011;20358;50.272;19.026;2022-08-21T15:32:17;18.60;;;16.70;;
34080;SDS011;20358;50.272;19.026;2022-08-21T15:35:25;11.23;;;9.93;;
34080;SDS011;20358;50.272;19.026;2022-08-21T15:38:32;11.03;;;9.50;;
34080;SDS011;20358;50.272;19.026;2022-08-21T15:41:41;11.53;;;9.90;;
34080;SDS011;20358;50.272;19.026;2022-08-21T15:44:48;16.83;;;15.03;;
34080;SDS011;20358;50.272;19.026;2022-08-21T15:47:55;17.67;;;14.17;;
34080;SDS011;20358;50.272;19.026;2022-08-21T15:51:04;14.63;;;12.83;;
34080;SDS011;20358;50.272;19.026;2022-08-21T15:54:11;14.47;;;11.37;;
34080;SDS011;20358;50.272;19.026;2022-08-21T15:57:21;15.43;;;13.80;;
34080;SDS011;20358;50.272;19.026;2022-08-21T16:00:29;13.40;;;12.03;;
34080;SDS011;20358;50.272;19.026;2022-08-21T16:03:39;14.27;;;12.60;;
34080;SDS011;20358;50.272;19.026;2022-08-21T16:06:47;12.50;;;11.17;;
34080;SDS011;20358;50.272;19.026;2022-08-21T16:09:56;13.07;;;11.47;;
34080;SDS011;20358;50.272;19.026;2022-08-21T16:13:10;14.93;;;13.53;;
34080;SDS011;20358;50.272;19.026;2022-08-21T16:16:20;18.23;;;15.13;;
34080;SDS011;20358;50.272;19.026;2022-08-21T16:19:28;22.83;;;19.23;;
34080;SDS011;20358;50.272;19.026;2022-08-21T16:22:34;14.63;;;13.07;;
34080;SDS011;20358;50.272;19.026;2022-08-21T16:25:46;16.10;;;14.50;;
34080;SDS011;20358;50.272;19.026;2022-08-21T16:28:56;16.80;;;13.87;;
34080;SDS011;20358;50.272;19.026;2022-08-21T16:32:06;19.30;;;16.87;;
34080;SDS011;20358;50.272;19.026;2022-08-21T16:35:14;17.33;;;12.70;;
34080;SDS011;20358;50.272;19.026;2022-08-21T16:38:22;11.83;;;9.03;;
34080;SDS011;20358;50.272;19.026;2022-08-21T16:41:33;11.33;;;9.07;;
34080;SDS011;20358;50.272;19.026;2022-08-21T16:44:43;10.93;;;9.80;;
34080;SDS011;20358;50.272;19.026;2022-08-21T16:47:50;11.97;;;10.17;;
34080;SDS011;20358;50.272;19.026;2022-08-21T16:50:57;12.47;;;9.73;;
34080;SDS011;20358;50.272;19.026;2022-08-21T16:54:04;10.37;;;8.53;;
34080;SDS011;20358;50.272;19.026;2022-08-21T16:57:11;11.00;;;9.87;;
34080;SDS011;20358;50.272;19.026;2022-08-21T17:00:20;14.27;;;12.00;;
34080;SDS011;20358;50.272;19.026;2022-08-21T17:03:30;16.47;;;13.10;;
34080;SDS011;20358;50.272;19.026;2022-08-21T17:06:38;14.53;;;12.73;;
34080;SDS011;20358;50.272;19.026;2022-08-21T17:09:46;16.10;;;12.13;;
34080;SDS011;20358;50.272;19.026;2022-08-21T17:12:53;15.87;;;13.00;;
34080;SDS011;20358;50.272;19.026;2022-08-21T17:16:08;16.23;;;13.60;;
34080;SDS011;20358;50.272;19.026;2022-08-21T17:19:14;15.40;;;13.37;;
34080;SDS011;20358;50.272;19.026;2022-08-21T17:22:21;12.73;;;9.97;;
34080;SDS011;20358;50.272;19.026;2022-08-21T17:25:27;8.10;;;7.03;;
34080;SDS011;20358;50.272;19.026;2022-08-21T17:28:35;6.73;;;6.03;;
34080;SDS011;20358;50.272;19.026;2022-08-21T17:31:44;6.23;;;4.07;;
34080;SDS011;20358;50.272;19.026;2022-08-21T17:34:51;6.10;;;4.53;;
34080;SDS011;20358;50.272;19.026;2022-08-21T17:37:57;7.83;;;5.07;;
34080;SDS011;20358;50.272;19.026;2022-08-21T17:41:06;6.10;;;4.43;;
34080;SDS011;20358;50.272;19.026;2022-08-21T17:44:12;5.27;;;4.20;;
34080;SDS011;20358;50.272;19.026;2022-08-21T17:47:25;4.70;;;3.77;;
34080;SDS011;20358;50.272;19.026;2022-08-21T17:50:31;4.83;;;4.00;;
34080;SDS011;20358;50.272;19.026;2022-08-21T17:53:38;4.40;;;4.00;;
34080;SDS011;20358;50.272;19.026;2022-08-21T17:56:44;5.63;;;5.13;;
34080;SDS011;20358;50.272;19.026;2022-08-21T17:59:51;8.03;;;6.30;;
34080;SDS011;20358;50.272;19.026;2022-08-21T18:03:03;15.83;;;12.73;;
34080;SDS011;20358;50.272;19.026;2022-08-21T18:06:16;21.30;;;17.53;;
34080;SDS011;20358;50.272;19.026;2022-08-21T18:09:23;22.30;;;18.23;;
34080;SDS011;20358;50.272;19.026;2022-08-21T18:12:30;27.97;;;20.30;;
34080;SDS011;20358;50.272;19.026;2022-08-21T18:15:37;27.57;;;21.07;;
34080;SDS011;20358;50.272;19.026;2022-08-21T18:18:47;30.27;;;23.07;;
34080;SDS011;20358;50.272;19.026;2022-08-21T18:21:54;29.30;;;22.20;;
34080;SDS011;20358;50.272;19.026;2022-08-21T18:25:07;18.50;;;15.07;;
34080;SDS011;20358;50.272;19.026;2022-08-21T18:28:16;14.57;;;11.03;;
34080;SDS011;20358;50.272;19.026;2022-08-21T18:31:26;13.40;;;11.47;;
34080;SDS011;20358;50.272;19.026;2022-08-21T18:34:38;14.40;;;11.73;;
34080;SDS011;20358;50.272;19.026;2022-08-21T18:37:47;8.27;;;7.47;;